createdAt,value
2018-04-29T00:01:29.129Z,7.20
2018-04-29T00:03:55.639Z,7.20
2018-04-29T00:06:22.172Z,7.20
2018-04-29T00:08:49.168Z,7.20
2018-04-29T00:11:17.329Z,7.20
2018-04-29T00:13:43.921Z,7.10
2018-04-29T00:16:11.098Z,7.20
2018-04-29T00:18:37.589Z,7.20
2018-04-29T00:21:04.181Z,7.20
2018-04-29T00:23:31.495Z,7.20
2018-04-29T00:25:58.227Z,7.10
2018-04-29T00:28:24.792Z,7.20
2018-04-29T00:30:51.343Z,7.20
2018-04-29T00:33:17.845Z,7.20
2018-04-29T00:35:44.409Z,7.20
2018-04-29T00:38:10.922Z,7.20
2018-04-29T00:40:38.140Z,7.20
2018-04-29T00:43:04.916Z,7.20
2018-04-29T00:45:31.400Z,7.20
2018-04-29T00:47:58.607Z,7.30
2018-04-29T00:50:25.346Z,7.30
2018-04-29T00:52:52.600Z,7.30
2018-04-29T00:55:19.230Z,7.30
2018-04-29T00:57:45.801Z,7.40
2018-04-29T01:00:12.337Z,7.30
2018-04-29T01:02:40.405Z,7.40
2018-04-29T01:05:06.930Z,7.30
2018-04-29T01:07:33.457Z,7.40
2018-04-29T01:09:59.880Z,7.40
2018-04-29T01:12:27.186Z,7.40
2018-04-29T01:14:54.398Z,7.50
2018-04-29T01:17:20.851Z,7.40
2018-04-29T01:19:47.481Z,7.40
2018-04-29T01:22:13.901Z,7.40
2018-04-29T01:24:40.453Z,7.50
2018-04-29T01:27:07.508Z,7.60
2018-04-29T01:29:34.123Z,7.60
2018-04-29T01:32:00.749Z,7.60
2018-04-29T01:34:27.273Z,7.60
2018-04-29T01:36:53.703Z,7.50
2018-04-29T01:39:20.192Z,7.50
2018-04-29T01:41:47.435Z,7.30
2018-04-29T01:44:14.070Z,7.30
2018-04-29T01:46:40.578Z,7.20
2018-04-29T01:49:07.258Z,7.10
2018-04-29T01:51:33.743Z,7.00
2018-04-29T01:54:01.016Z,6.90
2018-04-29T01:56:27.535Z,6.80
2018-04-29T01:58:54.021Z,6.90
2018-04-29T02:01:20.476Z,6.90
2018-04-29T02:03:47.998Z,7.00
2018-04-29T02:06:14.451Z,6.90
2018-04-29T02:08:41.753Z,7.00
2018-04-29T02:11:08.581Z,7.00
2018-04-29T02:13:35.135Z,7.00
2018-04-29T02:16:01.560Z,7.10
2018-04-29T02:18:28.083Z,7.30
2018-04-29T02:20:54.634Z,7.30
2018-04-29T02:23:21.190Z,7.30
2018-04-29T02:25:47.735Z,7.30
2018-04-29T02:28:14.269Z,7.30
2018-04-29T02:30:40.885Z,7.30
2018-04-29T02:33:07.463Z,7.40
2018-04-29T02:35:33.972Z,7.40
2018-04-29T02:38:00.500Z,7.40
2018-04-29T02:40:27.010Z,7.40
2018-04-29T02:42:53.480Z,7.30
2018-04-29T02:45:20.084Z,7.30
2018-04-29T02:47:46.652Z,7.30
2018-04-29T02:50:13.412Z,7.20
2018-04-29T02:52:39.944Z,7.20
2018-04-29T02:55:06.545Z,7.30
2018-04-29T02:57:33.055Z,7.30
2018-04-29T02:59:59.506Z,7.30
2018-04-29T03:02:26.037Z,7.30
2018-04-29T03:04:53.219Z,7.30
2018-04-29T03:07:19.772Z,7.30
2018-04-29T03:09:47.314Z,7.40
2018-04-29T03:12:13.818Z,7.40
2018-04-29T03:14:40.325Z,7.60
2018-04-29T03:17:06.871Z,7.50
2018-04-29T03:19:33.373Z,7.60
2018-04-29T03:21:59.996Z,7.50
2018-04-29T03:24:26.449Z,7.50
2018-04-29T03:26:53.008Z,7.40
2018-04-29T03:29:19.543Z,7.40
2018-04-29T03:31:46.049Z,7.30
2018-04-29T03:34:13.335Z,7.60
2018-04-29T03:36:39.816Z,7.50
2018-04-29T03:39:06.509Z,7.50
2018-04-29T03:41:32.969Z,7.50
2018-04-29T03:43:59.454Z,7.50
2018-04-29T03:46:26.097Z,7.50
2018-04-29T03:48:52.577Z,7.50
2018-04-29T03:51:19.387Z,7.50
2018-04-29T03:53:45.874Z,7.50
2018-04-29T03:56:12.383Z,7.40
2018-04-29T03:58:51.554Z,7.40
2018-04-29T04:01:30.178Z,7.40
2018-04-29T04:03:59.692Z,7.40
2018-04-29T04:06:26.923Z,7.40
2018-04-29T04:08:53.395Z,7.50
2018-04-29T04:11:20.886Z,7.40
2018-04-29T04:13:48.359Z,7.40
2018-04-29T04:16:14.796Z,7.40
2018-04-29T04:18:41.393Z,7.40
2018-04-29T04:21:07.831Z,7.30
2018-04-29T04:23:34.324Z,7.30
2018-04-29T04:26:00.871Z,7.30
2018-04-29T04:28:27.351Z,7.30
2018-04-29T04:30:54.589Z,7.20
2018-04-29T04:33:21.355Z,7.20
2018-04-29T04:35:47.937Z,7.20
2018-04-29T04:38:14.476Z,7.20
2018-04-29T04:40:41.824Z,7.20
2018-04-29T04:43:08.331Z,7.10
2018-04-29T04:45:34.924Z,7.10
2018-04-29T04:48:02.275Z,7.10
2018-04-29T04:50:28.791Z,7.00
2018-04-29T04:52:55.411Z,7.00
2018-04-29T04:55:21.873Z,7.10
2018-04-29T04:57:48.248Z,7.10
2018-04-29T05:00:14.830Z,7.20
2018-04-29T05:02:42.715Z,7.10
2018-04-29T05:05:09.298Z,7.10
2018-04-29T05:07:35.763Z,7.10
2018-04-29T05:10:02.263Z,7.10
2018-04-29T05:12:28.724Z,7.10
2018-04-29T05:14:55.254Z,7.20
2018-04-29T05:17:21.915Z,7.10
2018-04-29T05:19:48.330Z,7.10
2018-04-29T05:22:14.987Z,7.10
2018-04-29T05:24:41.744Z,7.20
2018-04-29T05:27:08.204Z,7.20
2018-04-29T05:29:35.437Z,7.20
2018-04-29T05:32:01.914Z,7.20
2018-04-29T05:34:28.388Z,7.20
2018-04-29T05:36:54.837Z,7.30
2018-04-29T05:39:21.332Z,7.20
2018-04-29T05:41:47.781Z,7.10
2018-04-29T05:44:14.243Z,7.10
2018-04-29T05:46:41.358Z,7.10
2018-04-29T05:49:07.896Z,7.10
2018-04-29T05:51:35.135Z,7.10
2018-04-29T05:54:01.763Z,7.10
2018-04-29T05:56:28.270Z,7.10
2018-04-29T05:58:54.668Z,7.10
2018-04-29T06:01:21.496Z,7.10
2018-04-29T06:03:48.044Z,7.10
2018-04-29T06:06:14.500Z,7.10
2018-04-29T06:08:41.018Z,7.10
2018-04-29T06:11:08.778Z,7.10
2018-04-29T06:13:35.232Z,7.10
2018-04-29T06:16:02.769Z,7.10
2018-04-29T06:18:29.189Z,7.10
2018-04-29T06:20:55.678Z,7.10
2018-04-29T06:23:22.396Z,7.00
2018-04-29T06:25:48.926Z,7.00
2018-04-29T06:28:15.367Z,7.00
2018-04-29T06:30:42.065Z,7.00
2018-04-29T06:33:08.550Z,7.10
2018-04-29T06:35:35.018Z,7.10
2018-04-29T06:38:02.284Z,7.10
2018-04-29T06:40:28.737Z,7.00
2018-04-29T06:42:55.265Z,7.10
2018-04-29T06:45:22.390Z,7.10
2018-04-29T06:47:49.697Z,7.10
2018-04-29T06:50:16.290Z,7.10
2018-04-29T06:52:42.804Z,7.10
2018-04-29T06:55:09.364Z,7.20
2018-04-29T06:57:35.844Z,7.20
2018-04-29T07:00:02.403Z,7.20
2018-04-29T07:02:29.727Z,7.10
2018-04-29T07:04:56.214Z,7.10
2018-04-29T07:07:23.013Z,7.10
2018-04-29T07:09:49.934Z,7.10
2018-04-29T07:12:16.432Z,7.10
2018-04-29T07:14:42.940Z,7.20
2018-04-29T07:17:09.432Z,7.10
2018-04-29T07:19:35.956Z,7.10
2018-04-29T07:22:02.544Z,7.10
2018-04-29T07:24:30.039Z,7.10
2018-04-29T07:26:57.231Z,7.10
2018-04-29T07:29:23.756Z,7.00
2018-04-29T07:31:50.214Z,7.00
2018-04-29T07:34:16.718Z,7.00
2018-04-29T07:36:43.194Z,7.10
2018-04-29T07:39:09.822Z,7.20
2018-04-29T07:41:36.348Z,7.10
2018-04-29T07:44:03.015Z,7.00
2018-04-29T07:46:29.548Z,7.10
2018-04-29T07:48:56.038Z,7.10
2018-04-29T07:51:22.807Z,7.20
2018-04-29T07:53:49.359Z,7.20
2018-04-29T07:56:15.993Z,7.10
2018-04-29T07:58:42.554Z,7.20
2018-04-29T08:01:09.134Z,7.30
2018-04-29T08:03:36.722Z,7.30
2018-04-29T08:06:03.324Z,7.30
2018-04-29T08:08:30.013Z,7.30
2018-04-29T08:10:56.604Z,7.30
2018-04-29T08:13:23.043Z,7.30
2018-04-29T08:15:49.612Z,7.30
2018-04-29T08:18:16.247Z,7.40
2018-04-29T08:20:43.469Z,7.50
2018-04-29T08:23:10.672Z,7.50
2018-04-29T08:25:37.992Z,7.60
2018-04-29T08:28:04.801Z,7.60
2018-04-29T08:30:31.250Z,7.60
2018-04-29T08:32:57.772Z,7.70
2018-04-29T08:35:24.237Z,7.70
2018-04-29T08:37:50.745Z,7.70
2018-04-29T08:40:17.251Z,7.70
2018-04-29T08:42:43.833Z,7.70
2018-04-29T08:45:11.352Z,7.70
2018-04-29T08:47:37.924Z,7.80
2018-04-29T08:50:05.637Z,7.90
2018-04-29T08:52:32.166Z,7.90
2018-04-29T08:54:58.646Z,7.90
2018-04-29T08:57:26.020Z,8.00
2018-04-29T08:59:52.512Z,7.90
2018-04-29T09:02:19.092Z,8.00
2018-04-29T09:04:46.421Z,8.00
2018-04-29T09:07:13.020Z,8.00
2018-04-29T09:09:39.628Z,8.10
2018-04-29T09:12:06.181Z,8.10
2018-04-29T09:14:32.751Z,8.00
2018-04-29T09:16:59.965Z,8.20
2018-04-29T09:19:27.770Z,8.10
2018-04-29T09:21:54.398Z,8.10
2018-04-29T09:24:20.946Z,7.90
2018-04-29T09:26:48.239Z,7.90
2018-04-29T09:29:14.682Z,7.90
2018-04-29T09:31:41.220Z,7.90
2018-04-29T09:34:07.696Z,8.00
2018-04-29T09:36:34.159Z,7.90
2018-04-29T09:39:00.607Z,8.00
2018-04-29T09:41:27.097Z,8.00
2018-04-29T09:43:53.660Z,8.10
2018-04-29T09:46:20.222Z,8.20
2018-04-29T09:48:46.726Z,8.20
2018-04-29T09:51:13.325Z,8.10
2018-04-29T09:53:39.798Z,8.20
2018-04-29T09:56:07.384Z,8.30
2018-04-29T09:58:33.957Z,8.30
2018-04-29T10:01:00.630Z,8.30
2018-04-29T10:03:27.868Z,8.40
2018-04-29T10:05:54.468Z,8.40
2018-04-29T10:08:21.009Z,8.40
2018-04-29T10:10:47.631Z,8.60
2018-04-29T10:13:14.148Z,8.50
2018-04-29T10:15:40.641Z,8.60
2018-04-29T10:18:07.199Z,8.60
2018-04-29T10:20:34.590Z,8.60
2018-04-29T10:23:01.034Z,8.60
2018-04-29T10:25:27.560Z,8.70
2018-04-29T10:27:54.036Z,8.70
2018-04-29T10:30:20.624Z,8.70
2018-04-29T10:32:47.197Z,8.70
2018-04-29T10:35:13.701Z,8.70
2018-04-29T10:37:40.272Z,8.60
2018-04-29T10:40:07.540Z,8.60
2018-04-29T10:42:34.001Z,8.60
2018-04-29T10:45:00.514Z,8.70
2018-04-29T10:47:27.757Z,8.60
2018-04-29T10:49:54.367Z,8.60
2018-04-29T10:52:21.049Z,8.70
2018-04-29T10:54:47.987Z,8.70
2018-04-29T10:57:14.627Z,8.80
2018-04-29T10:59:41.179Z,8.80
2018-04-29T11:02:08.766Z,8.80
2018-04-29T11:04:35.299Z,8.70
2018-04-29T11:07:01.834Z,8.80
2018-04-29T11:09:28.377Z,8.80
2018-04-29T11:11:54.961Z,8.80
2018-04-29T11:14:21.544Z,8.80
2018-04-29T11:16:48.576Z,8.80
2018-04-29T11:19:15.780Z,8.80
2018-04-29T11:21:42.259Z,8.80
2018-04-29T11:24:09.116Z,8.80
2018-04-29T11:26:35.830Z,8.90
2018-04-29T11:29:02.293Z,8.80
2018-04-29T11:31:28.822Z,8.60
2018-04-29T11:33:55.604Z,8.40
2018-04-29T11:36:22.064Z,8.40
2018-04-29T11:38:48.768Z,8.40
2018-04-29T11:41:15.340Z,8.40
2018-04-29T11:43:41.776Z,8.40
2018-04-29T11:46:08.630Z,8.40
2018-04-29T11:48:35.295Z,8.60
2018-04-29T11:51:01.869Z,8.60
2018-04-29T11:53:29.948Z,8.80
2018-04-29T11:55:56.506Z,8.80
2018-04-29T11:58:23.099Z,8.80
2018-04-29T12:00:49.751Z,8.90
2018-04-29T12:03:16.409Z,9.10
2018-04-29T12:05:43.037Z,9.20
2018-04-29T12:08:09.661Z,9.20
2018-04-29T12:10:36.291Z,9.20
2018-04-29T12:13:02.829Z,9.30
2018-04-29T12:15:29.364Z,9.40
2018-04-29T12:17:55.911Z,9.50
2018-04-29T12:20:22.552Z,9.50
2018-04-29T12:22:50.632Z,9.50
2018-04-29T12:25:17.963Z,9.50
2018-04-29T12:27:44.437Z,9.60
2018-04-29T12:30:11.751Z,9.70
2018-04-29T12:32:38.166Z,9.70
2018-04-29T12:35:05.391Z,9.60
2018-04-29T12:37:32.728Z,9.60
2018-04-29T12:39:59.226Z,9.60
2018-04-29T12:42:26.516Z,9.50
2018-04-29T12:44:53.776Z,9.80
2018-04-29T12:47:20.386Z,9.80
2018-04-29T12:49:47.012Z,9.80
2018-04-29T12:52:13.849Z,10.00
2018-04-29T12:54:40.436Z,10.10
2018-04-29T12:57:07.032Z,10.10
2018-04-29T12:59:34.202Z,10.20
2018-04-29T13:02:01.652Z,10.30
2018-04-29T13:04:28.136Z,10.30
2018-04-29T13:06:55.085Z,10.20
2018-04-29T13:09:21.548Z,10.30
2018-04-29T13:11:48.042Z,10.30
2018-04-29T13:14:14.590Z,10.50
2018-04-29T13:16:41.085Z,10.60
2018-04-29T13:19:07.521Z,10.40
2018-04-29T13:21:35.865Z,10.70
2018-04-29T13:24:02.351Z,10.70
2018-04-29T13:26:28.821Z,10.70
2018-04-29T13:28:55.362Z,10.80
2018-04-29T13:31:22.540Z,11.00
2018-04-29T13:33:48.995Z,11.00
2018-04-29T13:36:16.249Z,10.80
2018-04-29T13:38:42.645Z,10.80
2018-04-29T13:41:09.088Z,10.80
2018-04-29T13:43:35.644Z,11.00
2018-04-29T13:46:02.138Z,11.20
2018-04-29T13:48:29.362Z,12.00
2018-04-29T13:50:55.828Z,12.00
2018-04-29T13:53:22.277Z,12.20
2018-04-29T13:55:48.706Z,12.40
2018-04-29T13:58:15.427Z,12.10
2018-04-29T14:00:41.957Z,12.00
2018-04-29T14:03:09.281Z,12.00
2018-04-29T14:05:35.734Z,12.00
2018-04-29T14:08:02.247Z,12.20
2018-04-29T14:10:28.726Z,12.40
2018-04-29T14:12:55.331Z,12.50
2018-04-29T14:15:22.012Z,12.20
2018-04-29T14:17:48.479Z,12.10
2018-04-29T14:20:14.929Z,12.30
2018-04-29T14:22:42.126Z,12.50
2018-04-29T14:25:09.396Z,12.40
2018-04-29T14:27:36.235Z,12.30
2018-04-29T14:30:02.791Z,12.60
2018-04-29T14:32:29.313Z,12.50
2018-04-29T14:34:55.797Z,12.20
2018-04-29T14:37:22.274Z,11.80
2018-04-29T14:39:49.626Z,11.60
2018-04-29T14:42:16.099Z,11.60
2018-04-29T14:44:42.695Z,11.50
2018-04-29T14:47:10.215Z,11.30
2018-04-29T14:52:10.110Z,11.60
2018-04-29T14:54:36.678Z,11.70
2018-04-29T14:57:03.167Z,11.80
2018-04-29T14:59:29.891Z,11.80
2018-04-29T15:01:56.432Z,11.80
2018-04-29T15:04:23.030Z,11.70
2018-04-29T15:06:50.250Z,11.80
2018-04-29T15:09:16.796Z,11.80
2018-04-29T15:11:43.973Z,11.50
2018-04-29T15:14:10.413Z,11.50
2018-04-29T15:16:36.964Z,11.70
2018-04-29T15:19:04.377Z,11.60
2018-04-29T15:21:30.793Z,11.60
2018-04-29T15:23:57.391Z,11.70
2018-04-29T15:26:23.836Z,11.50
2018-04-29T15:28:50.448Z,11.50
2018-04-29T15:31:16.926Z,11.40
2018-04-29T15:33:43.468Z,11.50
2018-04-29T15:36:09.986Z,11.40
2018-04-29T15:38:37.273Z,11.50
2018-04-29T15:41:03.816Z,11.50
2018-04-29T15:43:30.376Z,11.40
2018-04-29T15:45:57.205Z,11.40
2018-04-29T15:48:23.679Z,11.50
2018-04-29T15:50:50.313Z,11.60
2018-04-29T15:53:18.131Z,11.70
2018-04-29T15:55:44.851Z,11.70
2018-04-29T15:58:11.387Z,11.70
2018-04-29T16:00:38.422Z,11.60
2018-04-29T16:03:04.921Z,11.50
2018-04-29T16:05:32.232Z,11.30
2018-04-29T16:07:59.528Z,11.30
2018-04-29T16:10:26.153Z,11.40
2018-04-29T16:12:52.693Z,11.40
2018-04-29T16:15:19.227Z,11.40
2018-04-29T16:17:46.605Z,11.30
2018-04-29T16:20:13.057Z,11.30
2018-04-29T16:22:40.935Z,11.00
2018-04-29T16:25:08.152Z,11.10
2018-04-29T16:27:35.375Z,11.10
2018-04-29T16:30:01.986Z,11.10
2018-04-29T16:32:29.266Z,10.90
2018-04-29T16:34:55.775Z,10.90
2018-04-29T16:37:22.331Z,11.00
2018-04-29T16:39:48.759Z,11.10
2018-04-29T16:42:15.238Z,11.10
2018-04-29T16:44:41.729Z,11.10
2018-04-29T16:47:08.212Z,11.10
2018-04-29T16:49:34.785Z,11.20
2018-04-29T16:52:01.254Z,11.20
2018-04-29T16:54:27.703Z,11.30
2018-04-29T16:56:54.130Z,11.30
2018-04-29T16:59:20.637Z,11.30
2018-04-29T17:01:47.121Z,11.10
2018-04-29T17:04:14.356Z,11.00
2018-04-29T17:06:40.932Z,10.90
2018-04-29T17:09:08.114Z,11.00
2018-04-29T17:11:34.546Z,11.00
2018-04-29T17:14:01.116Z,11.00
2018-04-29T17:16:27.686Z,11.00
2018-04-29T17:18:54.166Z,11.00
2018-04-29T17:21:20.651Z,11.00
2018-04-29T17:23:47.195Z,11.00
2018-04-29T17:26:13.748Z,10.90
2018-04-29T17:28:40.223Z,10.90
2018-04-29T17:31:06.622Z,10.70
2018-04-29T17:33:33.083Z,10.60
2018-04-29T17:35:59.751Z,10.50
2018-04-29T17:38:26.301Z,10.40
2018-04-29T17:40:52.861Z,10.30
2018-04-29T17:43:19.445Z,10.10
2018-04-29T17:45:46.011Z,10.10
2018-04-29T17:48:13.251Z,10.10
2018-04-29T17:50:40.756Z,10.10
2018-04-29T17:53:07.246Z,10.10
2018-04-29T17:55:33.689Z,10.00
2018-04-29T17:58:00.248Z,10.00
2018-04-29T18:00:26.695Z,10.00
2018-04-29T18:02:53.218Z,9.90
2018-04-29T18:05:19.942Z,9.90
2018-04-29T18:07:46.611Z,9.90
2018-04-29T18:10:13.076Z,9.80
2018-04-29T18:12:40.345Z,9.70
2018-04-29T18:15:07.807Z,9.70
2018-04-29T18:17:34.229Z,9.60
2018-04-29T18:20:01.467Z,9.60
2018-04-29T18:22:27.987Z,9.50
2018-04-29T18:24:54.423Z,9.50
2018-04-29T18:27:21.577Z,9.60
2018-04-29T18:29:48.069Z,9.50
2018-04-29T18:32:15.243Z,9.40
2018-04-29T18:34:41.704Z,9.40
2018-04-29T18:37:08.624Z,9.40
2018-04-29T18:39:35.067Z,9.40
2018-04-29T18:42:01.698Z,9.30
2018-04-29T18:44:28.172Z,9.30
2018-04-29T18:46:54.593Z,9.20
2018-04-29T18:49:21.115Z,9.20
2018-04-29T18:51:47.616Z,9.10
2018-04-29T18:54:14.064Z,9.10
2018-04-29T18:56:40.767Z,9.00
2018-04-29T18:59:07.147Z,9.00
2018-04-29T19:01:33.647Z,8.90
2018-04-29T19:04:01.102Z,8.90
2018-04-29T19:06:27.529Z,8.90
2018-04-29T19:08:54.198Z,8.90
2018-04-29T19:11:20.793Z,8.80
2018-04-29T19:13:47.297Z,8.80
2018-04-29T19:16:13.771Z,8.80
2018-04-29T19:18:40.260Z,8.80
2018-04-29T19:21:06.713Z,8.80
2018-04-29T19:23:33.183Z,8.80
2018-04-29T19:25:59.756Z,8.80
2018-04-29T19:28:26.261Z,8.60
2018-04-29T19:30:52.863Z,8.70
2018-04-29T19:33:19.488Z,8.60
2018-04-29T19:35:46.030Z,8.60
2018-04-29T19:38:12.510Z,8.60
2018-04-29T19:40:39.745Z,8.50
2018-04-29T19:43:06.277Z,8.50
2018-04-29T19:45:32.755Z,8.50
2018-04-29T19:47:59.376Z,8.40
2018-04-29T19:50:25.816Z,8.40
2018-04-29T19:52:52.306Z,8.50
2018-04-29T19:55:18.772Z,8.40
2018-04-29T19:57:45.932Z,8.20
2018-04-29T20:00:12.326Z,8.20
2018-04-29T20:02:39.684Z,8.20
2018-04-29T20:05:06.197Z,8.30
2018-04-29T20:07:32.743Z,8.20
2018-04-29T20:09:59.725Z,8.30
2018-04-29T20:12:27.063Z,8.10
2018-04-29T20:14:53.628Z,8.10
2018-04-29T20:17:20.149Z,8.10
2018-04-29T20:19:47.361Z,8.10
2018-04-29T20:22:13.918Z,8.10
2018-04-29T20:24:41.349Z,8.10
2018-04-29T20:27:08.614Z,8.10
2018-04-29T20:29:35.094Z,8.00
2018-04-29T20:32:02.321Z,8.10
2018-04-29T20:34:28.786Z,8.00
2018-04-29T20:36:55.336Z,8.00
2018-04-29T20:39:22.056Z,8.00
2018-04-29T20:41:48.598Z,8.00
2018-04-29T20:44:15.175Z,8.00
2018-04-29T20:46:41.851Z,8.00
2018-04-29T20:49:08.316Z,8.00
2018-04-29T20:51:34.802Z,8.00
2018-04-29T20:54:01.723Z,8.00
2018-04-29T20:56:28.321Z,8.00
2018-04-29T20:58:54.831Z,8.00
2018-04-29T21:01:21.427Z,8.00
2018-04-29T21:03:47.905Z,8.00
2018-04-29T21:06:14.403Z,7.90
2018-04-29T21:08:41.182Z,7.90
2018-04-29T21:11:07.774Z,7.80
2018-04-29T21:13:34.265Z,7.80
2018-04-29T21:16:01.561Z,7.70
2018-04-29T21:18:28.849Z,7.70
2018-04-29T21:20:55.375Z,7.70
2018-04-29T21:23:21.970Z,7.70
2018-04-29T21:25:48.567Z,7.70
2018-04-29T21:28:14.996Z,7.70
2018-04-29T21:30:43.007Z,7.60
2018-04-29T21:33:09.398Z,7.60
2018-04-29T21:35:36.011Z,7.60
2018-04-29T21:38:02.918Z,7.50
2018-04-29T21:40:29.487Z,7.60
2018-04-29T21:42:55.953Z,7.60
2018-04-29T21:45:22.507Z,7.60
2018-04-29T22:24:43.003Z,7.40
2018-04-29T22:27:09.943Z,7.40
2018-04-29T22:29:36.461Z,7.40
2018-04-29T22:32:03.015Z,7.30
2018-04-29T22:34:30.399Z,7.30
2018-04-29T22:36:57.100Z,7.30
2018-04-29T22:39:24.376Z,7.30
2018-04-29T22:41:50.832Z,7.30
2018-04-29T22:44:17.444Z,7.30
2018-04-29T22:46:43.898Z,7.30
2018-04-29T22:49:10.352Z,7.30
2018-04-29T22:51:37.626Z,7.20
2018-04-29T22:54:05.011Z,7.20
2018-04-29T22:56:31.507Z,7.20
2018-04-29T22:58:57.969Z,7.20
2018-04-29T23:01:24.556Z,7.20
2018-04-29T23:03:51.023Z,7.20
2018-04-29T23:06:17.560Z,7.20
2018-04-29T23:08:44.234Z,7.20
2018-04-29T23:11:10.650Z,7.20
2018-04-29T23:13:37.149Z,7.30
2018-04-29T23:16:04.671Z,7.30
2018-04-29T23:18:31.201Z,7.30
2018-04-29T23:20:57.612Z,7.20
2018-04-29T23:23:24.087Z,7.20
2018-04-29T23:25:50.660Z,7.20
2018-04-29T23:28:17.849Z,7.10
2018-04-29T23:30:44.572Z,7.10
2018-04-29T23:33:11.134Z,7.10
2018-04-29T23:35:37.650Z,7.10
2018-04-29T23:38:04.329Z,7.10
2018-04-29T23:40:30.836Z,7.10
2018-04-29T23:42:57.232Z,7.00
2018-04-29T23:45:24.948Z,7.00
2018-04-29T23:47:51.421Z,7.00
2018-04-29T23:50:17.990Z,7.00
2018-04-29T23:52:44.891Z,7.00
2018-04-29T23:55:11.382Z,7.00
2018-04-29T23:57:37.998Z,6.90
